sensor_id;sensor_type;location;lat;lon;timestamp;P1;durP1;ratioP1;P2;durP2;ratioP2
64653;SDS011;51065;48.884;12.598;2023-04-30T00:01:53;8.77;;;3.95;;
64653;SDS011;51065;48.884;12.598;2023-04-30T00:04:19;8.57;;;4.05;;
64653;SDS011;51065;48.884;12.598;2023-04-30T00:06:45;11.05;;;5.00;;
64653;SDS011;51065;48.884;12.598;2023-04-30T00:09:10;9.40;;;4.40;;
64653;SDS011;51065;48.884;12.598;2023-04-30T00:11:36;10.88;;;4.80;;
64653;SDS011;51065;48.884;12.598;2023-04-30T00:14:02;8.32;;;3.97;;
64653;SDS011;51065;48.884;12.598;2023-04-30T00:16:28;9.57;;;4.22;;
64653;SDS011;51065;48.884;12.598;2023-04-30T00:18:53;10.07;;;3.90;;
64653;SDS011;51065;48.884;12.598;2023-04-30T00:21:19;10.43;;;4.68;;
64653;SDS011;51065;48.884;12.598;2023-04-30T00:23:44;8.98;;;4.35;;
64653;SDS011;51065;48.884;12.598;2023-04-30T00:26:10;11.15;;;4.30;;
64653;SDS011;51065;48.884;12.598;2023-04-30T00:28:35;9.38;;;4.25;;
64653;SDS011;51065;48.884;12.598;2023-04-30T00:31:01;9.68;;;4.70;;
64653;SDS011;51065;48.884;12.598;2023-04-30T00:33:27;9.43;;;4.55;;
64653;SDS011;51065;48.884;12.598;2023-04-30T00:35:52;9.50;;;4.10;;
64653;SDS011;51065;48.884;12.598;2023-04-30T00:38:18;10.70;;;4.63;;
64653;SDS011;51065;48.884;12.598;2023-04-30T00:40:43;11.57;;;4.90;;
64653;SDS011;51065;48.884;12.598;2023-04-30T00:43:10;8.38;;;4.28;;
64653;SDS011;51065;48.884;12.598;2023-04-30T00:45:36;7.88;;;4.00;;
64653;SDS011;51065;48.884;12.598;2023-04-30T00:48:01;10.43;;;4.70;;
64653;SDS011;51065;48.884;12.598;2023-04-30T00:50:28;9.65;;;4.68;;
64653;SDS011;51065;48.884;12.598;2023-04-30T00:52:53;10.02;;;4.95;;
64653;SDS011;51065;48.884;12.598;2023-04-30T00:55:19;11.13;;;4.93;;
64653;SDS011;51065;48.884;12.598;2023-04-30T00:57:45;10.18;;;4.40;;
64653;SDS011;51065;48.884;12.598;2023-04-30T01:00:11;11.35;;;4.80;;
64653;SDS011;51065;48.884;12.598;2023-04-30T01:02:38;9.10;;;4.32;;
64653;SDS011;51065;48.884;12.598;2023-04-30T01:05:04;11.18;;;4.78;;
64653;SDS011;51065;48.884;12.598;2023-04-30T01:07:30;12.05;;;4.65;;
64653;SDS011;51065;48.884;12.598;2023-04-30T01:09:58;10.02;;;4.47;;
64653;SDS011;51065;48.884;12.598;2023-04-30T01:12:37;10.43;;;4.75;;
64653;SDS011;51065;48.884;12.598;2023-04-30T01:15:26;11.70;;;4.50;;
64653;SDS011;51065;48.884;12.598;2023-04-30T01:18:32;10.18;;;4.32;;
64653;SDS011;51065;48.884;12.598;2023-04-30T01:20:54;11.93;;;5.13;;
64653;SDS011;51065;48.884;12.598;2023-04-30T01:26:28;10.27;;;4.60;;
64653;SDS011;51065;48.884;12.598;2023-04-30T01:28:54;9.25;;;4.47;;
64653;SDS011;51065;48.884;12.598;2023-04-30T01:31:23;11.02;;;5.05;;
64653;SDS011;51065;48.884;12.598;2023-04-30T01:33:48;8.73;;;4.40;;
64653;SDS011;51065;48.884;12.598;2023-04-30T01:39:00;10.40;;;4.60;;
64653;SDS011;51065;48.884;12.598;2023-04-30T01:41:51;10.55;;;4.00;;
64653;SDS011;51065;48.884;12.598;2023-04-30T01:44:40;9.30;;;4.47;;
64653;SDS011;51065;48.884;12.598;2023-04-30T01:47:19;8.73;;;3.90;;
64653;SDS011;51065;48.884;12.598;2023-04-30T01:52:30;10.40;;;4.25;;
64653;SDS011;51065;48.884;12.598;2023-04-30T01:55:05;9.25;;;4.32;;
64653;SDS011;51065;48.884;12.598;2023-04-30T01:57:39;8.32;;;4.40;;
64653;SDS011;51065;48.884;12.598;2023-04-30T02:00:08;9.63;;;4.38;;
64653;SDS011;51065;48.884;12.598;2023-04-30T02:02:39;11.43;;;4.97;;
64653;SDS011;51065;48.884;12.598;2023-04-30T02:05:04;9.95;;;4.20;;
64653;SDS011;51065;48.884;12.598;2023-04-30T02:07:36;10.80;;;4.30;;
64653;SDS011;51065;48.884;12.598;2023-04-30T02:10:05;12.43;;;4.80;;
64653;SDS011;51065;48.884;12.598;2023-04-30T02:12:31;11.63;;;4.75;;
64653;SDS011;51065;48.884;12.598;2023-04-30T02:14:56;9.45;;;4.50;;
64653;SDS011;51065;48.884;12.598;2023-04-30T02:17:22;11.38;;;5.25;;
64653;SDS011;51065;48.884;12.598;2023-04-30T02:19:48;9.93;;;4.70;;
64653;SDS011;51065;48.884;12.598;2023-04-30T02:22:13;10.02;;;4.80;;
64653;SDS011;51065;48.884;12.598;2023-04-30T02:24:39;10.93;;;5.10;;
64653;SDS011;51065;48.884;12.598;2023-04-30T02:27:04;10.73;;;4.78;;
64653;SDS011;51065;48.884;12.598;2023-04-30T02:29:30;10.10;;;4.97;;
64653;SDS011;51065;48.884;12.598;2023-04-30T02:31:58;9.85;;;4.88;;
64653;SDS011;51065;48.884;12.598;2023-04-30T02:34:24;9.30;;;4.82;;
64653;SDS011;51065;48.884;12.598;2023-04-30T02:36:50;9.43;;;4.32;;
64653;SDS011;51065;48.884;12.598;2023-04-30T02:39:15;10.77;;;5.22;;
64653;SDS011;51065;48.884;12.598;2023-04-30T02:41:41;11.85;;;5.15;;
64653;SDS011;51065;48.884;12.598;2023-04-30T02:44:06;10.45;;;4.93;;
64653;SDS011;51065;48.884;12.598;2023-04-30T02:46:32;13.63;;;5.20;;
64653;SDS011;51065;48.884;12.598;2023-04-30T02:48:58;10.90;;;5.18;;
64653;SDS011;51065;48.884;12.598;2023-04-30T02:51:23;12.05;;;5.25;;
64653;SDS011;51065;48.884;12.598;2023-04-30T02:53:49;12.20;;;5.45;;
64653;SDS011;51065;48.884;12.598;2023-04-30T02:56:15;11.55;;;4.80;;
64653;SDS011;51065;48.884;12.598;2023-04-30T02:58:41;11.57;;;5.22;;
64653;SDS011;51065;48.884;12.598;2023-04-30T03:01:06;13.23;;;5.22;;
64653;SDS011;51065;48.884;12.598;2023-04-30T03:03:32;10.63;;;5.18;;
64653;SDS011;51065;48.884;12.598;2023-04-30T03:05:57;11.98;;;4.55;;
64653;SDS011;51065;48.884;12.598;2023-04-30T03:08:23;11.98;;;5.07;;
64653;SDS011;51065;48.884;12.598;2023-04-30T03:10:49;11.20;;;4.88;;
64653;SDS011;51065;48.884;12.598;2023-04-30T03:13:15;10.10;;;4.85;;
64653;SDS011;51065;48.884;12.598;2023-04-30T03:15:40;12.70;;;5.55;;
64653;SDS011;51065;48.884;12.598;2023-04-30T03:18:06;11.50;;;5.43;;
64653;SDS011;51065;48.884;12.598;2023-04-30T03:20:31;12.18;;;5.35;;
64653;SDS011;51065;48.884;12.598;2023-04-30T03:22:57;10.95;;;5.25;;
64653;SDS011;51065;48.884;12.598;2023-04-30T03:25:22;12.27;;;5.30;;
64653;SDS011;51065;48.884;12.598;2023-04-30T03:27:48;10.68;;;4.95;;
64653;SDS011;51065;48.884;12.598;2023-04-30T03:30:14;10.75;;;5.35;;
64653;SDS011;51065;48.884;12.598;2023-04-30T03:32:39;11.27;;;5.18;;
64653;SDS011;51065;48.884;12.598;2023-04-30T03:35:05;13.70;;;5.55;;
64653;SDS011;51065;48.884;12.598;2023-04-30T03:37:31;11.07;;;5.63;;
64653;SDS011;51065;48.884;12.598;2023-04-30T03:39:57;13.88;;;5.20;;
64653;SDS011;51065;48.884;12.598;2023-04-30T03:42:22;13.63;;;5.50;;
64653;SDS011;51065;48.884;12.598;2023-04-30T03:44:48;12.65;;;5.00;;
64653;SDS011;51065;48.884;12.598;2023-04-30T03:47:13;11.00;;;5.03;;
64653;SDS011;51065;48.884;12.598;2023-04-30T03:49:39;11.45;;;5.10;;
64653;SDS011;51065;48.884;12.598;2023-04-30T03:52:04;12.10;;;5.20;;
64653;SDS011;51065;48.884;12.598;2023-04-30T03:54:31;12.88;;;5.43;;
64653;SDS011;51065;48.884;12.598;2023-04-30T03:56:58;13.70;;;5.38;;
64653;SDS011;51065;48.884;12.598;2023-04-30T03:59:24;11.80;;;5.57;;
64653;SDS011;51065;48.884;12.598;2023-04-30T04:01:50;12.30;;;5.43;;
64653;SDS011;51065;48.884;12.598;2023-04-30T04:04:15;13.05;;;5.45;;
64653;SDS011;51065;48.884;12.598;2023-04-30T04:06:41;12.57;;;5.65;;
64653;SDS011;51065;48.884;12.598;2023-04-30T04:09:07;13.10;;;5.65;;
64653;SDS011;51065;48.884;12.598;2023-04-30T04:11:32;15.20;;;6.30;;
64653;SDS011;51065;48.884;12.598;2023-04-30T04:13:58;12.88;;;6.07;;
64653;SDS011;51065;48.884;12.598;2023-04-30T04:16:24;13.60;;;5.82;;
64653;SDS011;51065;48.884;12.598;2023-04-30T04:18:50;12.77;;;5.80;;
64653;SDS011;51065;48.884;12.598;2023-04-30T04:21:16;11.40;;;4.90;;
64653;SDS011;51065;48.884;12.598;2023-04-30T04:23:42;13.27;;;5.78;;
64653;SDS011;51065;48.884;12.598;2023-04-30T04:26:08;11.93;;;5.18;;
64653;SDS011;51065;48.884;12.598;2023-04-30T04:28:34;12.82;;;5.88;;
64653;SDS011;51065;48.884;12.598;2023-04-30T04:31:00;13.90;;;5.97;;
64653;SDS011;51065;48.884;12.598;2023-04-30T04:33:27;12.48;;;5.45;;
64653;SDS011;51065;48.884;12.598;2023-04-30T04:35:52;12.82;;;5.30;;
64653;SDS011;51065;48.884;12.598;2023-04-30T04:38:18;14.15;;;5.85;;
64653;SDS011;51065;48.884;12.598;2023-04-30T04:40:50;13.18;;;5.78;;
64653;SDS011;51065;48.884;12.598;2023-04-30T04:43:17;13.05;;;6.22;;
64653;SDS011;51065;48.884;12.598;2023-04-30T04:45:42;12.93;;;6.07;;
64653;SDS011;51065;48.884;12.598;2023-04-30T04:48:08;11.48;;;5.38;;
64653;SDS011;51065;48.884;12.598;2023-04-30T04:50:33;13.68;;;5.82;;
64653;SDS011;51065;48.884;12.598;2023-04-30T04:53:00;12.57;;;5.63;;
64653;SDS011;51065;48.884;12.598;2023-04-30T04:55:25;14.13;;;6.00;;
64653;SDS011;51065;48.884;12.598;2023-04-30T04:57:51;15.38;;;6.38;;
64653;SDS011;51065;48.884;12.598;2023-04-30T05:00:16;14.32;;;5.63;;
64653;SDS011;51065;48.884;12.598;2023-04-30T05:02:43;13.95;;;5.65;;
64653;SDS011;51065;48.884;12.598;2023-04-30T05:05:08;13.85;;;5.60;;
64653;SDS011;51065;48.884;12.598;2023-04-30T05:07:35;13.65;;;5.72;;
64653;SDS011;51065;48.884;12.598;2023-04-30T05:10:00;15.15;;;5.60;;
64653;SDS011;51065;48.884;12.598;2023-04-30T05:12:26;13.00;;;5.85;;
64653;SDS011;51065;48.884;12.598;2023-04-30T05:14:51;13.95;;;5.78;;
64653;SDS011;51065;48.884;12.598;2023-04-30T05:17:17;13.25;;;5.53;;
64653;SDS011;51065;48.884;12.598;2023-04-30T05:19:42;11.85;;;6.05;;
64653;SDS011;51065;48.884;12.598;2023-04-30T05:22:09;13.02;;;5.53;;
64653;SDS011;51065;48.884;12.598;2023-04-30T05:24:34;13.05;;;5.78;;
64653;SDS011;51065;48.884;12.598;2023-04-30T05:27:00;12.07;;;5.60;;
64653;SDS011;51065;48.884;12.598;2023-04-30T05:29:26;12.88;;;6.45;;
64653;SDS011;51065;48.884;12.598;2023-04-30T05:31:52;11.48;;;5.60;;
64653;SDS011;51065;48.884;12.598;2023-04-30T05:34:18;14.45;;;6.22;;
64653;SDS011;51065;48.884;12.598;2023-04-30T05:36:44;14.93;;;6.20;;
64653;SDS011;51065;48.884;12.598;2023-04-30T05:39:09;12.32;;;5.88;;
64653;SDS011;51065;48.884;12.598;2023-04-30T05:41:35;12.93;;;6.18;;
64653;SDS011;51065;48.884;12.598;2023-04-30T05:44:00;12.85;;;6.38;;
64653;SDS011;51065;48.884;12.598;2023-04-30T05:46:28;11.68;;;5.82;;
64653;SDS011;51065;48.884;12.598;2023-04-30T05:48:54;16.42;;;6.72;;
64653;SDS011;51065;48.884;12.598;2023-04-30T05:51:20;11.50;;;5.57;;
64653;SDS011;51065;48.884;12.598;2023-04-30T05:53:45;13.05;;;6.00;;
64653;SDS011;51065;48.884;12.598;2023-04-30T05:56:11;13.73;;;6.07;;
64653;SDS011;51065;48.884;12.598;2023-04-30T05:58:37;14.30;;;6.30;;
64653;SDS011;51065;48.884;12.598;2023-04-30T06:01:03;12.55;;;5.82;;
64653;SDS011;51065;48.884;12.598;2023-04-30T06:03:29;13.40;;;5.90;;
64653;SDS011;51065;48.884;12.598;2023-04-30T06:05:55;12.18;;;5.97;;
64653;SDS011;51065;48.884;12.598;2023-04-30T06:08:21;10.10;;;5.78;;
64653;SDS011;51065;48.884;12.598;2023-04-30T06:10:47;13.77;;;6.40;;
64653;SDS011;51065;48.884;12.598;2023-04-30T06:13:13;12.80;;;6.07;;
64653;SDS011;51065;48.884;12.598;2023-04-30T06:15:39;15.23;;;6.10;;
64653;SDS011;51065;48.884;12.598;2023-04-30T06:18:05;15.23;;;6.93;;
64653;SDS011;51065;48.884;12.598;2023-04-30T06:20:31;15.65;;;6.05;;
64653;SDS011;51065;48.884;12.598;2023-04-30T06:22:57;13.52;;;6.25;;
64653;SDS011;51065;48.884;12.598;2023-04-30T06:25:23;14.80;;;6.20;;
64653;SDS011;51065;48.884;12.598;2023-04-30T06:27:50;12.75;;;6.57;;
64653;SDS011;51065;48.884;12.598;2023-04-30T06:30:18;12.95;;;5.88;;
64653;SDS011;51065;48.884;12.598;2023-04-30T06:32:43;13.18;;;6.63;;
64653;SDS011;51065;48.884;12.598;2023-04-30T06:35:09;15.48;;;6.63;;
64653;SDS011;51065;48.884;12.598;2023-04-30T06:37:35;15.55;;;7.47;;
64653;SDS011;51065;48.884;12.598;2023-04-30T06:40:02;15.65;;;7.05;;
64653;SDS011;51065;48.884;12.598;2023-04-30T06:42:29;15.10;;;7.30;;
64653;SDS011;51065;48.884;12.598;2023-04-30T06:44:58;15.50;;;7.53;;
64653;SDS011;51065;48.884;12.598;2023-04-30T06:47:26;16.58;;;8.98;;
64653;SDS011;51065;48.884;12.598;2023-04-30T06:49:52;13.73;;;6.57;;
64653;SDS011;51065;48.884;12.598;2023-04-30T06:52:17;14.57;;;7.57;;
64653;SDS011;51065;48.884;12.598;2023-04-30T06:54:43;14.30;;;6.22;;
64653;SDS011;51065;48.884;12.598;2023-04-30T06:57:08;9.98;;;5.55;;
64653;SDS011;51065;48.884;12.598;2023-04-30T06:59:34;11.02;;;5.32;;
64653;SDS011;51065;48.884;12.598;2023-04-30T07:02:00;12.95;;;5.85;;
64653;SDS011;51065;48.884;12.598;2023-04-30T07:04:25;12.45;;;5.72;;
64653;SDS011;51065;48.884;12.598;2023-04-30T07:06:51;13.15;;;5.88;;
64653;SDS011;51065;48.884;12.598;2023-04-30T07:09:17;10.98;;;5.35;;
64653;SDS011;51065;48.884;12.598;2023-04-30T07:11:43;9.77;;;4.82;;
64653;SDS011;51065;48.884;12.598;2023-04-30T07:14:09;11.27;;;5.13;;
64653;SDS011;51065;48.884;12.598;2023-04-30T07:16:34;11.32;;;5.70;;
64653;SDS011;51065;48.884;12.598;2023-04-30T07:19:00;10.30;;;4.53;;
64653;SDS011;51065;48.884;12.598;2023-04-30T07:21:25;12.60;;;5.28;;
64653;SDS011;51065;48.884;12.598;2023-04-30T07:23:51;9.45;;;4.38;;
64653;SDS011;51065;48.884;12.598;2023-04-30T07:26:17;9.73;;;4.60;;
64653;SDS011;51065;48.884;12.598;2023-04-30T07:28:42;11.02;;;4.40;;
64653;SDS011;51065;48.884;12.598;2023-04-30T07:31:10;7.53;;;4.10;;
64653;SDS011;51065;48.884;12.598;2023-04-30T07:33:36;7.25;;;3.90;;
64653;SDS011;51065;48.884;12.598;2023-04-30T07:36:02;9.73;;;4.32;;
64653;SDS011;51065;48.884;12.598;2023-04-30T07:38:28;7.68;;;3.50;;
64653;SDS011;51065;48.884;12.598;2023-04-30T07:40:53;8.65;;;3.88;;
64653;SDS011;51065;48.884;12.598;2023-04-30T07:43:19;6.30;;;3.30;;
64653;SDS011;51065;48.884;12.598;2023-04-30T07:45:44;6.93;;;3.65;;
64653;SDS011;51065;48.884;12.598;2023-04-30T07:48:10;9.20;;;3.88;;
64653;SDS011;51065;48.884;12.598;2023-04-30T07:50:35;10.45;;;3.80;;
64653;SDS011;51065;48.884;12.598;2023-04-30T07:53:01;6.72;;;3.53;;
64653;SDS011;51065;48.884;12.598;2023-04-30T07:55:27;8.27;;;3.78;;
64653;SDS011;51065;48.884;12.598;2023-04-30T07:57:52;7.68;;;4.13;;
64653;SDS011;51065;48.884;12.598;2023-04-30T08:00:18;8.75;;;3.80;;
64653;SDS011;51065;48.884;12.598;2023-04-30T08:02:44;7.75;;;3.60;;
64653;SDS011;51065;48.884;12.598;2023-04-30T08:05:09;6.72;;;3.33;;
64653;SDS011;51065;48.884;12.598;2023-04-30T08:07:35;7.20;;;3.70;;
64653;SDS011;51065;48.884;12.598;2023-04-30T08:10:01;8.00;;;3.53;;
64653;SDS011;51065;48.884;12.598;2023-04-30T08:12:26;7.60;;;3.63;;
64653;SDS011;51065;48.884;12.598;2023-04-30T08:15:01;6.47;;;3.50;;
64653;SDS011;51065;48.884;12.598;2023-04-30T08:17:29;5.75;;;3.45;;
64653;SDS011;51065;48.884;12.598;2023-04-30T08:19:55;5.93;;;3.13;;
64653;SDS011;51065;48.884;12.598;2023-04-30T08:22:21;7.72;;;3.13;;
64653;SDS011;51065;48.884;12.598;2023-04-30T08:24:47;6.60;;;3.45;;
64653;SDS011;51065;48.884;12.598;2023-04-30T08:27:12;6.50;;;3.70;;
64653;SDS011;51065;48.884;12.598;2023-04-30T08:29:38;4.72;;;3.13;;
64653;SDS011;51065;48.884;12.598;2023-04-30T08:32:03;5.72;;;3.47;;
64653;SDS011;51065;48.884;12.598;2023-04-30T08:34:29;6.72;;;3.33;;
64653;SDS011;51065;48.884;12.598;2023-04-30T08:36:55;5.95;;;3.13;;
64653;SDS011;51065;48.884;12.598;2023-04-30T08:39:21;7.22;;;3.45;;
64653;SDS011;51065;48.884;12.598;2023-04-30T08:41:48;6.38;;;3.20;;
64653;SDS011;51065;48.884;12.598;2023-04-30T08:44:23;7.10;;;3.25;;
64653;SDS011;51065;48.884;12.598;2023-04-30T08:46:52;7.57;;;3.30;;
64653;SDS011;51065;48.884;12.598;2023-04-30T08:49:18;5.75;;;2.60;;
64653;SDS011;51065;48.884;12.598;2023-04-30T08:51:48;3.77;;;2.67;;
64653;SDS011;51065;48.884;12.598;2023-04-30T08:54:14;6.95;;;2.72;;
64653;SDS011;51065;48.884;12.598;2023-04-30T08:56:41;6.55;;;2.97;;
64653;SDS011;51065;48.884;12.598;2023-04-30T08:59:07;5.68;;;2.60;;
64653;SDS011;51065;48.884;12.598;2023-04-30T09:01:33;4.72;;;2.85;;
64653;SDS011;51065;48.884;12.598;2023-04-30T09:03:59;5.05;;;2.80;;
64653;SDS011;51065;48.884;12.598;2023-04-30T09:06:26;5.38;;;3.05;;
64653;SDS011;51065;48.884;12.598;2023-04-30T09:08:52;4.53;;;2.67;;
64653;SDS011;51065;48.884;12.598;2023-04-30T09:11:30;4.57;;;2.60;;
64653;SDS011;51065;48.884;12.598;2023-04-30T09:13:57;4.32;;;2.50;;
64653;SDS011;51065;48.884;12.598;2023-04-30T09:16:25;3.00;;;2.30;;
64653;SDS011;51065;48.884;12.598;2023-04-30T09:18:52;4.25;;;2.55;;
64653;SDS011;51065;48.884;12.598;2023-04-30T09:21:36;4.63;;;2.90;;
64653;SDS011;51065;48.884;12.598;2023-04-30T09:24:03;4.35;;;3.03;;
64653;SDS011;51065;48.884;12.598;2023-04-30T09:26:33;5.70;;;2.67;;
64653;SDS011;51065;48.884;12.598;2023-04-30T09:29:00;5.93;;;2.78;;
64653;SDS011;51065;48.884;12.598;2023-04-30T09:31:31;5.45;;;3.17;;
64653;SDS011;51065;48.884;12.598;2023-04-30T09:33:58;6.15;;;2.90;;
64653;SDS011;51065;48.884;12.598;2023-04-30T09:36:23;4.72;;;2.65;;
64653;SDS011;51065;48.884;12.598;2023-04-30T09:38:49;6.22;;;3.13;;
64653;SDS011;51065;48.884;12.598;2023-04-30T09:41:21;7.45;;;2.90;;
64653;SDS011;51065;48.884;12.598;2023-04-30T09:43:47;4.85;;;2.70;;
64653;SDS011;51065;48.884;12.598;2023-04-30T09:46:13;5.13;;;3.05;;
64653;SDS011;51065;48.884;12.598;2023-04-30T09:48:40;6.82;;;3.30;;
64653;SDS011;51065;48.884;12.598;2023-04-30T09:51:08;4.55;;;2.75;;
64653;SDS011;51065;48.884;12.598;2023-04-30T09:53:36;4.57;;;2.85;;
64653;SDS011;51065;48.884;12.598;2023-04-30T09:56:12;5.78;;;3.00;;
64653;SDS011;51065;48.884;12.598;2023-04-30T09:58:43;4.55;;;2.92;;
64653;SDS011;51065;48.884;12.598;2023-04-30T10:01:14;7.82;;;3.00;;
64653;SDS011;51065;48.884;12.598;2023-04-30T10:03:41;7.05;;;3.42;;
64653;SDS011;51065;48.884;12.598;2023-04-30T10:06:07;6.85;;;3.20;;
64653;SDS011;51065;48.884;12.598;2023-04-30T10:08:43;6.28;;;2.78;;
64653;SDS011;51065;48.884;12.598;2023-04-30T10:11:14;5.82;;;3.15;;
64653;SDS011;51065;48.884;12.598;2023-04-30T10:19:21;4.88;;;2.83;;
64653;SDS011;51065;48.884;12.598;2023-04-30T10:21:48;8.55;;;3.22;;
64653;SDS011;51065;48.884;12.598;2023-04-30T10:24:15;6.32;;;2.80;;
64653;SDS011;51065;48.884;12.598;2023-04-30T10:26:43;5.15;;;2.72;;
64653;SDS011;51065;48.884;12.598;2023-04-30T10:29:09;7.15;;;3.38;;
64653;SDS011;51065;48.884;12.598;2023-04-30T10:31:37;5.70;;;3.05;;
64653;SDS011;51065;48.884;12.598;2023-04-30T10:34:16;4.63;;;2.72;;
64653;SDS011;51065;48.884;12.598;2023-04-30T10:37:08;5.38;;;2.55;;
64653;SDS011;51065;48.884;12.598;2023-04-30T10:39:49;3.78;;;2.47;;
64653;SDS011;51065;48.884;12.598;2023-04-30T10:42:15;4.97;;;2.50;;
64653;SDS011;51065;48.884;12.598;2023-04-30T10:44:40;4.22;;;2.33;;
64653;SDS011;51065;48.884;12.598;2023-04-30T10:47:06;4.13;;;2.40;;
64653;SDS011;51065;48.884;12.598;2023-04-30T10:49:32;16.92;;;7.28;;
64653;SDS011;51065;48.884;12.598;2023-04-30T10:52:00;4.30;;;2.08;;
64653;SDS011;51065;48.884;12.598;2023-04-30T10:54:31;4.10;;;2.05;;
64653;SDS011;51065;48.884;12.598;2023-04-30T10:57:11;3.70;;;1.90;;
64653;SDS011;51065;48.884;12.598;2023-04-30T10:59:53;4.97;;;2.17;;
64653;SDS011;51065;48.884;12.598;2023-04-30T11:02:45;3.30;;;2.20;;
64653;SDS011;51065;48.884;12.598;2023-04-30T11:05:16;6.10;;;3.30;;
64653;SDS011;51065;48.884;12.598;2023-04-30T11:07:50;3.90;;;2.63;;
64653;SDS011;51065;48.884;12.598;2023-04-30T11:10:21;7.05;;;3.50;;
64653;SDS011;51065;48.884;12.598;2023-04-30T11:12:48;4.35;;;2.42;;
64653;SDS011;51065;48.884;12.598;2023-04-30T11:15:16;4.25;;;2.20;;
64653;SDS011;51065;48.884;12.598;2023-04-30T11:17:44;5.70;;;3.00;;
64653;SDS011;51065;48.884;12.598;2023-04-30T11:20:13;4.32;;;2.50;;
64653;SDS011;51065;48.884;12.598;2023-04-30T11:22:47;5.30;;;2.60;;
64653;SDS011;51065;48.884;12.598;2023-04-30T11:25:38;5.90;;;2.50;;
64653;SDS011;51065;48.884;12.598;2023-04-30T11:28:18;4.72;;;2.40;;
64653;SDS011;51065;48.884;12.598;2023-04-30T11:30:52;4.72;;;2.30;;
64653;SDS011;51065;48.884;12.598;2023-04-30T11:33:22;3.58;;;2.20;;
64653;SDS011;51065;48.884;12.598;2023-04-30T11:35:49;4.88;;;2.38;;
64653;SDS011;51065;48.884;12.598;2023-04-30T11:38:20;5.32;;;2.30;;
64653;SDS011;51065;48.884;12.598;2023-04-30T11:41:00;3.92;;;2.10;;
64653;SDS011;51065;48.884;12.598;2023-04-30T11:43:27;2.83;;;2.05;;
64653;SDS011;51065;48.884;12.598;2023-04-30T11:46:12;8.57;;;4.80;;
64653;SDS011;51065;48.884;12.598;2023-04-30T11:48:40;3.35;;;1.92;;
64653;SDS011;51065;48.884;12.598;2023-04-30T11:51:14;3.42;;;2.25;;
64653;SDS011;51065;48.884;12.598;2023-04-30T11:53:40;6.60;;;2.47;;
64653;SDS011;51065;48.884;12.598;2023-04-30T11:56:06;4.10;;;2.17;;
64653;SDS011;51065;48.884;12.598;2023-04-30T11:58:35;5.00;;;2.28;;
64653;SDS011;51065;48.884;12.598;2023-04-30T12:01:07;3.92;;;2.28;;
64653;SDS011;51065;48.884;12.598;2023-04-30T12:03:39;8.13;;;2.33;;
64653;SDS011;51065;48.884;12.598;2023-04-30T12:06:20;4.75;;;2.25;;
64653;SDS011;51065;48.884;12.598;2023-04-30T12:08:47;3.28;;;2.05;;
64653;SDS011;51065;48.884;12.598;2023-04-30T12:11:26;4.57;;;2.15;;
64653;SDS011;51065;48.884;12.598;2023-04-30T12:13:53;2.85;;;2.10;;
64653;SDS011;51065;48.884;12.598;2023-04-30T12:16:27;5.53;;;2.10;;
64653;SDS011;51065;48.884;12.598;2023-04-30T12:19:03;4.25;;;2.10;;
64653;SDS011;51065;48.884;12.598;2023-04-30T12:21:29;3.70;;;2.25;;
64653;SDS011;51065;48.884;12.598;2023-04-30T12:23:55;12.18;;;6.53;;
64653;SDS011;51065;48.884;12.598;2023-04-30T12:26:21;3.88;;;2.80;;
64653;SDS011;51065;48.884;12.598;2023-04-30T12:28:47;4.88;;;2.30;;
64653;SDS011;51065;48.884;12.598;2023-04-30T12:31:13;5.38;;;2.35;;
64653;SDS011;51065;48.884;12.598;2023-04-30T12:33:46;4.28;;;2.13;;
64653;SDS011;51065;48.884;12.598;2023-04-30T12:36:17;3.75;;;2.20;;
64653;SDS011;51065;48.884;12.598;2023-04-30T12:38:43;5.03;;;2.53;;
64653;SDS011;51065;48.884;12.598;2023-04-30T12:41:11;6.63;;;2.30;;
64653;SDS011;51065;48.884;12.598;2023-04-30T12:46:06;4.03;;;2.10;;
64653;SDS011;51065;48.884;12.598;2023-04-30T12:48:42;5.82;;;1.98;;
64653;SDS011;51065;48.884;12.598;2023-04-30T12:51:11;3.40;;;2.20;;
64653;SDS011;51065;48.884;12.598;2023-04-30T12:53:43;4.88;;;1.98;;
64653;SDS011;51065;48.884;12.598;2023-04-30T12:56:11;2.75;;;2.00;;
64653;SDS011;51065;48.884;12.598;2023-04-30T12:58:39;3.92;;;2.30;;
64653;SDS011;51065;48.884;12.598;2023-04-30T13:01:10;3.25;;;2.20;;
64653;SDS011;51065;48.884;12.598;2023-04-30T13:03:37;5.50;;;2.40;;
64653;SDS011;51065;48.884;12.598;2023-04-30T13:06:03;3.72;;;2.20;;
64653;SDS011;51065;48.884;12.598;2023-04-30T13:08:30;4.32;;;2.50;;
64653;SDS011;51065;48.884;12.598;2023-04-30T13:10:57;6.45;;;2.45;;
64653;SDS011;51065;48.884;12.598;2023-04-30T13:13:22;5.10;;;2.60;;
64653;SDS011;51065;48.884;12.598;2023-04-30T13:15:48;4.07;;;2.20;;
64653;SDS011;51065;48.884;12.598;2023-04-30T13:18:13;3.88;;;1.98;;
64653;SDS011;51065;48.884;12.598;2023-04-30T13:20:42;4.18;;;2.10;;
64653;SDS011;51065;48.884;12.598;2023-04-30T13:23:08;4.45;;;1.90;;
64653;SDS011;51065;48.884;12.598;2023-04-30T13:25:35;2.72;;;2.05;;
64653;SDS011;51065;48.884;12.598;2023-04-30T13:28:02;3.38;;;2.10;;
64653;SDS011;51065;48.884;12.598;2023-04-30T13:30:27;5.97;;;2.10;;
64653;SDS011;51065;48.884;12.598;2023-04-30T13:32:53;4.82;;;2.30;;
64653;SDS011;51065;48.884;12.598;2023-04-30T13:35:19;5.63;;;2.30;;
64653;SDS011;51065;48.884;12.598;2023-04-30T13:37:45;5.05;;;2.17;;
64653;SDS011;51065;48.884;12.598;2023-04-30T13:40:13;4.13;;;1.83;;
64653;SDS011;51065;48.884;12.598;2023-04-30T13:42:39;5.88;;;1.80;;
64653;SDS011;51065;48.884;12.598;2023-04-30T13:45:06;2.97;;;2.00;;
64653;SDS011;51065;48.884;12.598;2023-04-30T13:47:33;3.40;;;1.98;;
64653;SDS011;51065;48.884;12.598;2023-04-30T13:49:59;3.25;;;1.95;;
64653;SDS011;51065;48.884;12.598;2023-04-30T13:52:25;4.45;;;1.70;;
64653;SDS011;51065;48.884;12.598;2023-04-30T13:54:51;1.80;;;1.67;;
64653;SDS011;51065;48.884;12.598;2023-04-30T13:57:17;4.97;;;1.98;;
64653;SDS011;51065;48.884;12.598;2023-04-30T13:59:43;3.45;;;2.50;;
64653;SDS011;51065;48.884;12.598;2023-04-30T14:02:08;4.82;;;2.30;;
64653;SDS011;51065;48.884;12.598;2023-04-30T14:04:34;4.25;;;2.10;;
64653;SDS011;51065;48.884;12.598;2023-04-30T14:07:01;3.97;;;2.10;;
64653;SDS011;51065;48.884;12.598;2023-04-30T14:09:27;3.40;;;2.00;;
64653;SDS011;51065;48.884;12.598;2023-04-30T14:11:53;4.43;;;2.15;;
64653;SDS011;51065;48.884;12.598;2023-04-30T14:14:20;3.72;;;2.08;;
64653;SDS011;51065;48.884;12.598;2023-04-30T14:16:45;5.18;;;2.10;;
64653;SDS011;51065;48.884;12.598;2023-04-30T14:19:11;3.80;;;2.13;;
64653;SDS011;51065;48.884;12.598;2023-04-30T14:21:37;3.50;;;2.13;;
64653;SDS011;51065;48.884;12.598;2023-04-30T14:24:02;3.13;;;2.15;;
64653;SDS011;51065;48.884;12.598;2023-04-30T14:26:29;5.25;;;2.33;;
64653;SDS011;51065;48.884;12.598;2023-04-30T14:28:55;4.22;;;2.10;;
64653;SDS011;51065;48.884;12.598;2023-04-30T14:31:21;3.25;;;2.08;;
64653;SDS011;51065;48.884;12.598;2023-04-30T14:33:47;3.53;;;2.10;;
64653;SDS011;51065;48.884;12.598;2023-04-30T14:36:12;3.50;;;2.08;;
64653;SDS011;51065;48.884;12.598;2023-04-30T14:38:38;3.10;;;1.90;;
64653;SDS011;51065;48.884;12.598;2023-04-30T14:41:04;3.65;;;2.25;;
64653;SDS011;51065;48.884;12.598;2023-04-30T14:43:29;3.80;;;2.20;;
64653;SDS011;51065;48.884;12.598;2023-04-30T14:45:55;2.38;;;1.88;;
64653;SDS011;51065;48.884;12.598;2023-04-30T14:48:20;2.95;;;2.10;;